ADDS TAF Board (Experimental) INFO Settings

IDs: Format: Expanded Condensed

KDCA - Washington/National, VA, US

Issued at 0529 UTC 27 Feb 2015
Updated at: 0559 UTC 27 Feb 2015
Time0552Z 27/06Z 27/07Z 27/08Z 27/09Z 27/10Z 27/11Z 27/12Z 27/13Z 27/14Z 27/15Z 27/16Z 27/17Z 27/18Z
Type OBS PRVL PRVL PRVL PRVL PRVL PRVL PRVL PRVL PRVL PRVL PRVL PRVL PRVL
VIS 10 >6 >6 >6 >6 >6 >6 >6 >6 >6 >6 >6 >6 >6
CIG 39 45 45 45 30 30 30 30 30 30 35 35 35 35
Cover OVC OVC OVC OVC OVC OVC OVC OVC OVC OVC BKN BKN BKN BKN
FltCat VFR VFR VFR VFR MVFR MVFR MVFR MVFR MVFR MVFR VFR VFR VFR VFR
WX -- -- -- -- -- -- -- -- -- -- -- -- -- --
WDir VRB 180 180 180 350 350 350 350 350 350 340 340 340 340
WSpd 0 3 3 3 5 5 5 5 5 5 12 12 12 12
WGst -- -- -- -- -- -- -- -- -- -- 20 20 20 20
R01/19
XWnd VRB 0 0 0 0 0 0 0 0 0 3 3 3 3
XGst -- -- -- -- -- -- -- -- -- -- 5 5 5 5
HWnd VRB -3 -3 -3 5 5 5 5 5 5 12 12 12 12
HGst -- -- -- -- -- -- -- -- -- -- 19 19 19 19
R04/22
XWnd VRB -1 -1 -1 3 3 3 3 3 3 9 9 9 9
XGst -- -- -- -- -- -- -- -- -- -- 14 14 14 14
HWnd VRB -3 -3 -3 4 4 4 4 4 4 8 8 8 8
HGst -- -- -- -- -- -- -- -- -- -- 14 14 14 14
R15/33
XWnd VRB -2 -2 -2 2 2 2 2 2 2 4 4 4 4
XGst -- -- -- -- -- -- -- -- -- -- 6 6 6 6
HWnd VRB 2 2 2 -4 -4 -4 -4 -4 -4 -11 -11 -11 -11
HGst -- -- -- -- -- -- -- -- -- -- -19 -19 -19 -19

NOTE: TEMPO conditions in [brackets]. Keep in mind TEMPO conditions might be better (lower impact) than prevailing conditions.

Raw TAF
KDCA 270529Z 2706/2806 18003KT P6SM OVC045
  FM270900 35005KT P6SM OVC030
  FM271500 34012G20KT P6SM BKN035
  FM272300 35008KT P6SM SCT050


Raw METAR
KDCA 270552Z 00000KT 10SM OVC039 01/M06 A3019 RMK AO2 SLP221 T00061056 10028 20000 53018
KDCA 270452Z 18003KT 10SM OVC044 01/M05 A3017 RMK AO2 SLP214 T00061050 400391006
KDCA 270352Z 15004KT 10SM OVC048 01/M06 A3015 RMK AO2 SLP208 T00061056
KDCA 270252Z 00000KT 10SM OVC055 01/M06 A3013 RMK AO2 SLP203 T00061056 51023

METAR Board
Radar Display
Forecast Discussion

TAF Board Legend

Potential Impact
Threat None Slight Moderate High
Visibility (sm) ≥5.1 5.1>X≥3 3>X≥1 <1
Ceiling (100 ft) ≥30.1 30.1>X≥10 10>X≥5 <5
Wind Speed (kt) <10 10≤X<20 20≤X<30 ≥30
Wind Gust (kt) <15 15≤X<25 25≤X<35 ≥35
Weather No Wx Reported VCTS,-TS,-FZRA,SN TS,FZRA +TS,+FZRA,+SN